Time;durP1;ratioP1;P1;durP2;ratioP2;P2;SDS_P1;SDS_P2;PMS_P1;PMS_P2;Temp;Humidity;BMP_temperature;BMP_pressure;BME280_temperature;BME280_humidity;BME280_pressure;Samples;Min_cycle;Max_cycle;Signal;HPM_P1;HPM_P2
2022/10/05 00:00:47;;;;;;;1999.90;999.90;;;14.40;99.90;;;;;;4995306;28;20031;-81
2022/10/05 00:03:13;;;;;;;1999.90;999.90;;;14.40;99.90;;;;;;4994886;28;20026;-81
2022/10/05 00:05:39;;;;;;;1999.90;999.90;;;14.40;99.90;;;;;;4995021;28;20033;-81
2022/10/05 00:08:27;;;;;;;1999.90;999.90;;;14.40;99.90;;;;;;4989196;28;20518;-81
2022/10/05 00:10:53;;;;;;;1999.90;999.90;;;14.40;99.90;;;;;;4994605;28;20062;-81
2022/10/05 00:13:24;;;;;;;1999.90;999.90;;;14.50;99.90;;;;;;4995016;28;20508;-77
2022/10/05 00:15:56;;;;;;;1999.90;999.90;;;14.50;99.90;;;;;;4994876;28;20022;-81
2022/10/05 00:18:22;;;;;;;1999.90;999.90;;;14.50;99.90;;;;;;4993763;28;20045;-81
2022/10/05 00:20:48;;;;;;;1999.90;999.90;;;14.60;99.90;;;;;;4994908;28;20030;-82
2022/10/05 00:23:20;;;;;;;1999.90;999.90;;;14.60;99.90;;;;;;4994606;28;20033;-78
2022/10/05 00:25:46;;;;;;;1999.90;999.90;;;14.60;99.90;;;;;;4994663;28;20109;-77
2022/10/05 00:28:29;;;;;;;1999.90;999.90;;;14.60;99.90;;;;;;4994580;28;20030;-81
2022/10/05 00:30:58;;;;;;;1999.90;999.90;;;14.80;99.90;;;;;;4975032;28;20031;-82
2022/10/05 00:33:26;;;;;;;1999.90;999.90;;;14.80;99.90;;;;;;4974747;28;20509;-81
2022/10/05 00:35:51;;;;;;;1999.90;999.90;;;14.80;99.90;;;;;;4975033;28;20031;-82
2022/10/05 00:38:17;;;;;;;1999.90;999.90;;;14.80;99.90;;;;;;4975329;28;20090;-82
2022/10/05 00:40:49;;;;;;;1999.90;999.90;;;14.80;99.90;;;;;;4992965;28;20094;-81
2022/10/05 00:43:14;;;;;;;1999.90;999.90;;;14.80;99.90;;;;;;4994370;28;20022;-82
2022/10/05 00:45:46;;;;;;;1999.90;999.90;;;14.80;99.90;;;;;;4993971;28;20034;-81
2022/10/05 00:48:20;;;;;;;1999.90;999.90;;;14.90;99.90;;;;;;4994428;28;20033;-77
2022/10/05 00:51:10;;;;;;;1999.90;999.90;;;14.90;99.90;;;;;;4994693;28;20379;-78
2022/10/05 00:53:57;;;;;;;1999.90;999.90;;;15.00;99.90;;;;;;4993457;28;20042;-82
2022/10/05 00:56:43;;;;;;;1999.90;999.90;;;15.00;99.90;;;;;;4993658;28;20572;-82
2022/10/05 00:59:26;;;;;;;1999.90;999.90;;;14.90;99.90;;;;;;4994078;28;20081;-82
2022/10/05 01:02:03;;;;;;;;;;;14.90;99.90;;;;;;4994683;28;20022;-82
2022/10/05 01:04:56;;;;;;;1999.90;999.90;;;14.90;99.90;;;;;;4994433;28;20337;-77
2022/10/05 01:07:49;;;;;;;1999.90;999.90;;;14.90;99.90;;;;;;4993839;28;20112;-82
2022/10/05 01:10:30;;;;;;;1999.90;999.90;;;14.90;99.90;;;;;;4974707;28;20061;-82
2022/10/05 01:13:09;;;;;;;1999.90;999.90;;;14.80;99.90;;;;;;4982766;28;20034;-82
2022/10/05 01:15:43;;;;;;;1999.90;999.90;;;14.90;99.90;;;;;;4993716;28;20487;-82
2022/10/05 01:18:37;;;;;;;1999.90;999.90;;;14.80;99.90;;;;;;4982054;28;20030;-82
2022/10/05 01:21:12;;;;;;;1999.90;999.90;;;14.90;99.90;;;;;;4974554;28;20047;-82
2022/10/05 01:23:58;;;;;;;1999.90;999.90;;;14.90;99.90;;;;;;4974158;28;20038;-78
2022/10/05 01:26:32;;;;;;;1999.90;999.90;;;14.90;99.90;;;;;;4974528;28;20054;-82
2022/10/05 01:29:09;;;;;;;1999.90;999.90;;;14.90;99.90;;;;;;4974004;28;20509;-77
2022/10/05 01:31:54;;;;;;;1999.90;999.90;;;14.90;99.90;;;;;;4974166;28;20494;-81
2022/10/05 01:34:42;;;;;;;1999.90;999.90;;;15.00;99.90;;;;;;4973917;28;20533;-82
2022/10/05 01:37:20;;;;;;;1999.90;999.90;;;15.10;99.90;;;;;;4974054;28;20042;-82
2022/10/05 01:40:00;;;;;;;1999.90;999.90;;;15.20;99.90;;;;;;4973882;28;20480;-78
2022/10/05 01:42:54;;;;;;;1999.90;999.90;;;15.20;99.90;;;;;;4974353;28;20027;-82
2022/10/05 01:46:09;;;;;;;1999.90;999.90;;;15.20;99.90;;;;;;4985364;28;20034;-82
2022/10/05 01:48:50;;;;;;;1999.90;999.90;;;15.20;99.90;;;;;;4997174;28;20038;-82
2022/10/05 01:51:53;;;;;;;1999.90;999.90;;;15.20;99.90;;;;;;4993166;28;20034;-82
2022/10/05 01:54:28;;;;;;;1999.90;999.90;;;15.20;99.90;;;;;;4993180;28;20486;-78
2022/10/05 01:57:09;;;;;;;1999.90;999.90;;;15.30;99.90;;;;;;4993188;28;20033;-82
2022/10/05 02:00:00;;;;;;;1999.90;999.90;;;15.30;99.90;;;;;;4992904;28;20026;-82
2022/10/05 02:02:30;;;;;;;1999.90;999.90;;;15.30;99.90;;;;;;4993489;28;20037;-82
2022/10/05 02:05:03;;;;;;;1999.90;999.90;;;15.30;99.90;;;;;;4993137;28;20022;-82
2022/10/05 02:07:37;;;;;;;1999.90;999.90;;;15.30;99.90;;;;;;4992698;28;20120;-81
2022/10/05 02:10:45;;;;;;;1999.90;999.90;;;15.20;99.90;;;;;;4992827;28;20030;-82
2022/10/05 02:13:18;;;;;;;1999.90;999.90;;;15.30;99.90;;;;;;4991012;28;20033;-77
2022/10/05 02:15:47;;;;;;;;;;;15.20;99.90;;;;;;4993456;28;20046;-82
2022/10/05 02:18:19;;;;;;;1999.90;999.90;;;15.20;99.90;;;;;;4992095;28;19906;-82
2022/10/05 02:20:47;;;;;;;1999.90;999.90;;;15.20;99.90;;;;;;4992842;28;20029;-82
2022/10/05 02:23:24;;;;;;;1999.90;999.90;;;15.20;99.90;;;;;;4992650;28;20061;-82
2022/10/05 02:25:51;;;;;;;1999.90;999.90;;;15.20;99.90;;;;;;4992937;28;20045;-82
2022/10/05 02:28:32;;;;;;;1999.90;999.90;;;15.20;99.90;;;;;;4993163;28;20154;-82
2022/10/05 02:31:03;;;;;;;1999.90;999.90;;;15.20;99.90;;;;;;4992674;28;20493;-82
2022/10/05 02:33:32;;;;;;;1999.90;999.90;;;15.30;99.90;;;;;;4991798;28;20397;-78
2022/10/05 02:36:10;;;;;;;1999.90;999.90;;;15.30;99.90;;;;;;4992821;28;20034;-82
2022/10/05 02:38:42;;;;;;;1999.90;999.90;;;15.30;99.90;;;;;;4990800;28;20022;-82
2022/10/05 02:41:30;;;;;;;1999.90;999.90;;;15.40;99.90;;;;;;4972926;28;20023;-82
2022/10/05 02:44:41;;;;;;;1999.90;999.90;;;15.40;99.90;;;;;;4973383;28;20113;-82
2022/10/05 02:47:17;;;;;;;1999.90;999.90;;;15.50;99.90;;;;;;4973189;28;20023;-78
2022/10/05 02:49:59;;;;;;;1999.90;999.90;;;15.50;99.90;;;;;;4973037;28;20441;-82
2022/10/05 02:52:44;;;;;;;1999.90;999.90;;;15.50;99.90;;;;;;4983375;28;20037;-82
2022/10/05 02:55:14;;;;;;;1999.90;999.90;;;15.50;99.90;;;;;;4992421;28;20468;-82
2022/10/05 02:57:59;;;;;;;1999.90;999.90;;;15.60;99.90;;;;;;4992483;28;20149;-78
2022/10/05 03:00:29;;;;;;;1999.90;999.90;;;15.60;99.90;;;;;;4992916;28;20032;-78
2022/10/05 03:03:07;;;;;;;1999.90;999.90;;;15.70;99.90;;;;;;4992568;28;20018;-82
2022/10/05 03:05:51;;;;;;;1999.90;999.90;;;15.70;99.90;;;;;;4992608;28;20042;-82
2022/10/05 03:08:25;;;;;;;1999.90;999.90;;;15.70;99.90;;;;;;4985228;28;20443;-82
2022/10/05 03:10:56;;;;;;;1999.90;999.90;;;15.70;99.90;;;;;;4972819;28;20019;-78
2022/10/05 03:13:45;;;;;;;1999.90;999.90;;;15.80;99.90;;;;;;4991339;28;20034;-78
2022/10/05 03:16:29;;;;;;;1999.90;999.90;;;15.80;99.90;;;;;;4992160;28;20026;-82
2022/10/05 03:19:24;;;;;;;1999.90;999.90;;;15.90;99.90;;;;;;4991272;28;20027;-82
2022/10/05 03:22:02;;;;;;;1999.90;999.90;;;16.30;99.90;;;;;;4995774;28;20100;-82
2022/10/05 03:24:34;;;;;;;1999.90;999.90;;;16.70;99.90;;;;;;4995809;28;20034;-81
2022/10/05 03:27:35;;;;;;;1999.90;999.90;;;16.80;99.90;;;;;;4996045;28;20030;-78
2022/10/05 03:30:24;;;;;;;1999.90;999.90;;;16.90;99.90;;;;;;4995780;28;20083;-81
2022/10/05 03:33:10;;;;;;;1999.90;999.90;;;17.00;99.90;;;;;;4995657;28;20053;-81
2022/10/05 03:36:03;;;;;;;1999.90;999.90;;;17.10;99.90;;;;;;4995238;28;20085;-81
2022/10/05 03:38:48;;;;;;;1999.90;999.90;;;17.10;99.90;;;;;;4995811;28;20384;-81
2022/10/05 03:41:14;;;;;;;1999.90;999.90;;;17.10;99.90;;;;;;4995621;28;20093;-81
2022/10/05 03:44:00;;;;;;;1999.90;999.90;;;17.20;99.90;;;;;;4995537;28;20062;-81
2022/10/05 03:46:49;;;;;;;1999.90;999.90;;;17.20;99.90;;;;;;4976253;28;20041;-81
2022/10/05 03:49:29;;;;;;;1999.90;999.90;;;17.20;99.90;;;;;;4975737;28;20019;-81
2022/10/05 03:52:02;;;;;;;1999.90;999.90;;;17.20;99.90;;;;;;4986523;28;20105;-78
2022/10/05 03:54:35;;;;;;;1999.90;999.90;;;17.20;99.90;;;;;;4995381;28;20033;-81
2022/10/05 03:57:18;;;;;;;1999.90;999.90;;;17.20;99.90;;;;;;4995464;28;20516;-80
2022/10/05 03:59:59;;;;;;;1999.90;999.90;;;17.20;99.90;;;;;;4995412;28;20401;-78
2022/10/05 04:02:29;;;;;;;1999.90;999.90;;;17.20;99.90;;;;;;4995609;28;20023;-81
2022/10/05 04:05:18;;;;;;;1999.90;999.90;;;17.20;99.90;;;;;;4995320;28;20030;-78
2022/10/05 04:07:56;;;;;;;1999.90;999.90;;;17.10;99.90;;;;;;4993701;28;20615;-81
2022/10/05 04:10:27;;;;;;;1999.90;999.90;;;17.10;99.90;;;;;;4994591;28;20494;-80
2022/10/05 04:13:14;;;;;;;1999.90;999.90;;;17.10;99.90;;;;;;4975365;28;20508;-81
2022/10/05 04:15:49;;;;;;;1999.90;999.90;;;17.20;99.90;;;;;;4974893;28;20034;-78
2022/10/05 04:18:40;;;;;;;1999.90;999.90;;;17.20;99.90;;;;;;4986685;28;20018;-81
2022/10/05 04:21:31;;;;;;;1999.90;999.90;;;17.10;99.90;;;;;;4994071;28;20573;-81
2022/10/05 04:24:05;;;;;;;1999.90;999.90;;;17.10;99.90;;;;;;4994746;28;20085;-81
2022/10/05 04:26:37;;;;;;;1999.90;999.90;;;16.80;99.90;;;;;;4995007;28;20068;-82
2022/10/05 04:29:35;;;;;;;1999.90;999.90;;;16.40;99.90;;;;;;4994596;28;20126;-78
2022/10/05 04:32:07;;;;;;;1999.90;999.90;;;16.20;99.90;;;;;;5001858;28;20544;-82
2022/10/05 04:34:54;;;;;;;1999.90;999.90;;;15.90;99.90;;;;;;4994571;28;20023;-82
2022/10/05 04:37:59;;;;;;;1999.90;999.90;;;15.80;99.90;;;;;;4994327;28;20026;-82
2022/10/05 04:40:50;;;;;;;1999.90;999.90;;;15.70;99.90;;;;;;4994583;28;20101;-82
2022/10/05 04:43:31;;;;;;;1999.90;999.90;;;15.70;99.90;;;;;;4994339;28;20030;-78
2022/10/05 04:47:02;;;;;;;1999.90;999.90;;;15.50;99.90;;;;;;4994061;28;20034;-83
2022/10/05 04:49:31;;;;;;;1999.90;999.90;;;15.50;99.90;;;;;;5011431;28;20053;-82
2022/10/05 04:52:08;;;;;;;1999.90;999.90;;;15.40;99.90;;;;;;5010681;28;20038;-82
2022/10/05 04:54:39;;;;;;;1999.90;999.90;;;15.30;99.90;;;;;;5011218;28;20034;-84
2022/10/05 04:57:13;;;;;;;1999.90;999.90;;;15.10;99.90;;;;;;5011083;28;20049;-84
2022/10/05 04:59:50;;;;;;;1999.90;999.90;;;15.10;99.90;;;;;;5011384;28;20037;-84
2022/10/05 05:02:36;;;;;;;1999.90;999.90;;;15.00;99.90;;;;;;5011576;28;20203;-84
2022/10/05 05:05:17;;;;;;;1999.90;999.90;;;15.00;99.90;;;;;;5011198;28;20153;-84
2022/10/05 05:07:48;;;;;;;1999.90;999.90;;;14.90;99.90;;;;;;5008366;28;20053;-78
2022/10/05 05:10:41;;;;;;;1999.90;999.90;;;14.80;99.90;;;;;;5010621;28;20037;-78
2022/10/05 05:13:40;;;;;;;1999.90;999.90;;;14.80;99.90;;;;;;5011096;28;20038;-84
2022/10/05 05:16:36;;;;;;;1999.90;999.90;;;14.70;99.90;;;;;;5011123;28;20032;-84
2022/10/05 05:19:30;;;;;;;1999.90;999.90;;;14.60;99.90;;;;;;5007132;28;20041;-83
2022/10/05 05:21:55;;;;;;;1999.90;999.90;;;14.60;99.90;;;;;;4993471;28;20049;-84
2022/10/05 05:24:47;;;;;;;1999.90;999.90;;;14.50;99.90;;;;;;4993620;28;20477;-78
2022/10/05 05:27:43;;;;;;;1999.90;999.90;;;14.50;99.90;;;;;;4993543;28;20037;-83
2022/10/05 05:30:34;;;;;;;1999.90;999.90;;;14.40;99.90;;;;;;4991928;28;20037;-83
2022/10/05 05:33:20;;;;;;;1999.90;999.90;;;14.40;99.90;;;;;;4989538;28;20429;-79
2022/10/05 05:35:52;;;;;;;1999.90;999.90;;;14.40;99.90;;;;;;4990130;28;20413;-79
2022/10/05 05:38:46;;;;;;;1999.90;999.90;;;14.40;99.90;;;;;;4993060;28;20444;-84
2022/10/05 05:41:35;;;;;;;1999.90;999.90;;;14.40;99.90;;;;;;4991663;28;20468;-84
2022/10/05 05:44:18;;;;;;;1999.90;999.90;;;14.40;99.90;;;;;;4992734;28;20495;-83
2022/10/05 05:47:07;;;;;;;1999.90;999.90;;;14.40;99.90;;;;;;4993424;28;20030;-79
2022/10/05 05:49:48;;;;;;;1999.90;999.90;;;14.40;99.90;;;;;;4992122;28;20038;-83
2022/10/05 05:52:27;;;;;;;1999.90;999.90;;;14.30;99.90;;;;;;4992756;28;20041;-84
2022/10/05 05:55:34;;;;;;;1999.90;999.90;;;14.30;99.90;;;;;;4993054;28;20022;-85
2022/10/05 05:58:10;;;;;;;1999.90;999.90;;;14.30;99.90;;;;;;4992257;28;20038;-79
2022/10/05 06:00:43;;;;;;;1999.90;999.90;;;14.30;99.90;;;;;;4993061;28;20019;-79
2022/10/05 06:03:21;;;;;;;1999.90;999.90;;;14.40;99.90;;;;;;4992717;28;20049;-76
2022/10/05 06:05:51;;;;;;;1999.90;999.90;;;14.50;99.90;;;;;;4990411;28;20091;-79
2022/10/05 06:08:35;;;;;;;1999.90;999.90;;;14.50;99.90;;;;;;4990412;28;20041;-78
2022/10/05 06:11:22;;;;;;;1999.90;999.90;;;14.50;99.90;;;;;;4984514;28;20033;-84
2022/10/05 06:13:49;;;;;;;1999.90;999.90;;;14.50;99.90;;;;;;4991081;28;20045;-78
2022/10/05 06:16:48;;;;;;;1999.90;999.90;;;14.60;99.90;;;;;;4983174;28;20383;-78
2022/10/05 06:19:18;;;;;;;1999.90;999.90;;;14.60;99.90;;;;;;4989580;28;20070;-83
2022/10/05 06:22:06;;;;;;;1999.90;999.90;;;14.60;99.90;;;;;;4989025;28;20065;-79
2022/10/05 06:24:47;;;;;;;1999.90;999.90;;;14.60;99.90;;;;;;4975247;28;20097;-83
2022/10/05 06:27:55;;;;;;;1999.90;999.90;;;14.70;99.90;;;;;;4971692;28;20026;-83
2022/10/05 06:30:21;;;;;;;1999.90;999.90;;;14.70;99.90;;;;;;4975664;28;20027;-83
2022/10/05 06:32:59;;;;;;;1999.90;999.90;;;14.80;99.90;;;;;;4990737;28;20041;-78
2022/10/05 06:35:40;;;;;;;1999.90;999.90;;;14.80;99.90;;;;;;4990740;28;20054;-78
2022/10/05 06:38:24;;;;;;;1999.90;999.90;;;14.80;99.90;;;;;;4990066;28;20500;-83
2022/10/05 06:41:02;;;;;;;1999.90;999.90;;;14.90;99.90;;;;;;4971406;28;20513;-78
2022/10/05 06:43:54;;;;;;;1999.90;999.90;;;14.90;99.90;;;;;;4978209;28;20068;-79
2022/10/05 06:46:46;;;;;;;1999.90;999.90;;;15.00;99.90;;;;;;4988850;28;20048;-78
2022/10/05 06:49:29;;;;;;;1999.90;999.90;;;15.10;99.90;;;;;;4986038;28;20109;-83
2022/10/05 06:52:07;;;;;;;1999.90;999.90;;;15.20;99.90;;;;;;4984614;28;20485;-79
2022/10/05 06:54:58;;;;;;;1999.90;999.90;;;15.30;99.90;;;;;;4989739;28;20190;-78
2022/10/05 06:57:54;;;;;;;1999.90;999.90;;;15.40;99.90;;;;;;4974810;28;20074;-80
2022/10/05 07:00:22;;;;;;;1999.90;999.90;;;15.40;99.90;;;;;;4975046;28;20031;-77
2022/10/05 07:03:10;;;;;;;1999.90;999.90;;;15.50;99.90;;;;;;4979169;28;20528;-76
2022/10/05 07:05:48;;;;;;;1999.90;999.90;;;15.50;99.90;;;;;;4986947;28;20038;-77
2022/10/05 07:08:51;;;;;;;1999.90;999.90;;;15.60;99.90;;;;;;4993053;28;20044;-75
2022/10/05 07:11:36;;;;;;;1999.90;999.90;;;15.60;99.90;;;;;;4986844;28;20026;-81
2022/10/05 07:14:16;;;;;;;1999.90;999.90;;;15.70;99.90;;;;;;4991371;28;20401;-78
2022/10/05 07:16:48;;;;;;;1999.90;999.90;;;15.80;99.90;;;;;;4983847;28;20030;-78
2022/10/05 07:19:51;;;;;;;1999.90;999.90;;;15.80;99.90;;;;;;4987337;28;20029;-75
2022/10/05 07:22:38;;;;;;;1999.90;999.90;;;15.90;99.90;;;;;;4984647;28;20428;-75
2022/10/05 07:25:19;;;;;;;1999.90;999.90;;;15.90;99.90;;;;;;4989105;28;20041;-78
2022/10/05 07:27:56;;;;;;;1999.90;999.90;;;16.00;99.90;;;;;;4992496;28;20117;-77
2022/10/05 07:30:23;;;;;;;1999.90;999.90;;;16.10;99.90;;;;;;4992611;28;20026;-79
2022/10/05 07:33:08;;;;;;;1999.90;999.90;;;16.10;99.90;;;;;;4992830;28;20085;-80
2022/10/05 07:38:44;;;;;;;1999.90;999.90;;;16.30;99.90;;;;;;4993754;28;20044;-81
2022/10/05 07:41:20;;;;;;;1999.90;999.90;;;16.40;99.90;;;;;;4992630;28;20035;-83
2022/10/05 07:43:48;;;;;;;1999.90;999.90;;;16.50;99.90;;;;;;4993159;28;20026;-81
2022/10/05 07:46:31;;;;;;;1999.90;999.90;;;16.50;99.90;;;;;;4975595;28;20494;-81
2022/10/05 07:49:14;;;;;;;1999.90;999.90;;;16.60;99.90;;;;;;4987139;28;20498;-80
2022/10/05 07:51:54;;;;;;;1999.90;999.90;;;16.80;99.90;;;;;;4990662;28;20090;-80
2022/10/05 07:54:41;;;;;;;1999.90;999.90;;;16.80;99.90;;;;;;4992862;28;20061;-84
2022/10/05 07:57:20;;;;;;;1999.90;999.90;;;16.80;99.90;;;;;;4992298;28;20406;-80
2022/10/05 07:59:55;;;;;;;1999.90;999.90;;;16.80;99.90;;;;;;4992928;28;20034;-80
2022/10/05 08:02:55;;;;;;;1999.90;999.90;;;17.00;99.90;;;;;;4992693;28;20381;-83
2022/10/05 08:05:31;;;;;;;1999.90;999.90;;;17.10;99.90;;;;;;4992216;28;20097;-83
2022/10/05 08:08:22;;;;;;;1999.90;999.90;;;17.30;99.90;;;;;;4985587;28;20485;-83
2022/10/05 08:10:50;;;;;;;1999.90;999.90;;;17.40;99.90;;;;;;4993171;28;20037;-79
2022/10/05 08:13:23;;;;;;;1999.90;999.90;;;17.40;99.90;;;;;;4984592;28;20031;-79
2022/10/05 08:15:54;;;;;;;;;;;17.60;99.90;;;;;;4984516;28;20035;-83
2022/10/05 08:18:49;;;;;;;1999.90;999.90;;;17.70;99.90;;;;;;4990587;28;19913;-83
2022/10/05 08:21:20;;;;;;;1999.90;999.90;;;17.90;99.90;;;;;;4993368;28;20031;-82
2022/10/05 08:24:02;;;;;;;1999.90;999.90;;;17.90;99.90;;;;;;4987780;28;20033;-77
2022/10/05 08:26:34;;;;;;;1999.90;999.90;;;17.90;99.90;;;;;;4988631;28;20019;-77
2022/10/05 08:29:25;;;;;;;1999.90;999.90;;;18.00;99.90;;;;;;4973268;28;20039;-77
2022/10/05 08:32:17;;;;;;;1999.90;999.90;;;18.10;99.90;;;;;;4985200;28;20022;-81
2022/10/05 08:35:02;;;;;;;1999.90;999.90;;;18.10;99.90;;;;;;4985810;28;20093;-83
2022/10/05 08:37:34;;;;;;;1999.90;999.90;;;18.20;99.90;;;;;;4992184;28;20058;-77
2022/10/05 08:40:17;;;;;;;1999.90;999.90;;;18.00;99.90;;;;;;4990676;28;20863;-82
2022/10/05 08:42:46;;;;;;;1999.90;999.90;;;18.00;99.90;;;;;;4990403;28;20088;-83
2022/10/05 08:45:17;;;;;;;1999.90;999.90;;;18.10;99.90;;;;;;4990575;28;20117;-83
2022/10/05 08:48:00;;;;;;;1999.90;999.90;;;18.20;99.90;;;;;;4988906;28;20093;-76
2022/10/05 08:51:05;;;;;;;1999.90;999.90;;;18.30;99.90;;;;;;4990068;28;20176;-73
2022/10/05 08:54:04;;;;;;;1999.90;999.90;;;18.30;99.90;;;;;;4982904;28;20038;-79
2022/10/05 08:56:42;;;;;;;1999.90;999.90;;;18.20;99.90;;;;;;4991402;28;20041;-79
2022/10/05 08:59:41;;;;;;;1999.90;999.90;;;18.30;99.90;;;;;;4991026;28;20133;-73
2022/10/05 09:02:39;;;;;;;1999.90;999.90;;;18.30;99.90;;;;;;4983590;28;20061;-73
2022/10/05 09:05:38;;;;;;;1999.90;999.90;;;18.30;99.90;;;;;;4989153;28;20053;-76
2022/10/05 09:08:21;;;;;;;1999.90;999.90;;;18.30;99.90;;;;;;4983993;28;20046;-76
2022/10/05 09:11:19;;;;;;;1999.90;999.90;;;18.40;99.90;;;;;;4990608;28;20038;-77
2022/10/05 09:14:13;;;;;;;1999.90;999.90;;;18.60;99.90;;;;;;4986828;28;20111;-78
2022/10/05 09:16:51;;;;;;;1999.90;999.90;;;18.60;99.90;;;;;;4986709;28;20030;-73
2022/10/05 09:19:41;;;;;;;1999.90;999.90;;;18.50;99.90;;;;;;4984724;28;20088;-79
2022/10/05 09:22:42;;;;;;;1999.90;999.90;;;18.50;99.90;;;;;;4975547;28;20043;-78
2022/10/05 09:25:26;;;;;;;1999.90;999.90;;;18.50;99.90;;;;;;4989561;28;20041;-76
2022/10/05 09:28:16;;;;;;;1999.90;999.90;;;18.50;99.90;;;;;;4986712;28;20421;-73
2022/10/05 09:30:57;;;;;;;1999.90;999.90;;;18.50;99.90;;;;;;4985391;28;20044;-74
2022/10/05 09:33:35;;;;;;;1999.90;999.90;;;18.70;99.90;;;;;;4982502;28;20046;-77
2022/10/05 09:36:25;;;;;;;1999.90;999.90;;;18.60;99.90;;;;;;4989795;28;20033;-77
2022/10/05 09:39:17;;;;;;;1999.90;999.90;;;18.60;99.90;;;;;;4988476;28;20097;-80
2022/10/05 09:42:20;;;;;;;1999.90;999.90;;;18.70;99.90;;;;;;4987873;28;20034;-79
2022/10/05 09:45:16;;;;;;;1999.90;999.90;;;18.60;99.90;;;;;;4987896;28;20560;-79
2022/10/05 09:47:58;;;;;;;1999.90;999.90;;;18.60;99.90;;;;;;4988623;28;20030;-78
2022/10/05 09:50:49;;;;;;;1999.90;999.90;;;18.70;99.90;;;;;;4986000;28;20030;-76
2022/10/05 09:53:39;;;;;;;1999.90;999.90;;;18.70;99.90;;;;;;4987117;28;20026;-79
2022/10/05 09:56:42;;;;;;;1999.90;999.90;;;18.90;99.90;;;;;;4988439;28;20030;-73
2022/10/05 09:59:51;;;;;;;1999.90;999.90;;;19.00;99.90;;;;;;4988781;28;20041;-77
2022/10/05 10:02:26;;;;;;;1999.90;999.90;;;19.00;99.90;;;;;;4986805;28;20037;-76
2022/10/05 10:05:09;;;;;;;1999.90;999.90;;;19.20;99.90;;;;;;4989091;28;20030;-76
2022/10/05 10:07:49;;;;;;;1999.90;999.90;;;19.20;99.90;;;;;;4986902;28;20525;-74
2022/10/05 10:10:48;;;;;;;1999.90;999.90;;;19.30;99.90;;;;;;4987261;28;20409;-74
2022/10/05 10:13:45;;;;;;;1999.90;999.90;;;19.60;99.90;;;;;;4988431;28;20027;-76
2022/10/05 10:16:36;;;;;;;1999.90;999.90;;;19.60;99.90;;;;;;4989151;28;20064;-78
2022/10/05 10:19:07;;;;;;;1999.90;999.90;;;19.40;99.90;;;;;;4980577;28;20029;-78
2022/10/05 10:22:00;;;;;;;1999.90;999.90;;;19.50;99.90;;;;;;4987831;28;20030;-73
2022/10/05 10:24:53;;;;;;;1999.90;999.90;;;19.50;99.90;;;;;;4982686;28;20084;-78
2022/10/05 10:27:43;;;;;;;1999.90;999.90;;;19.80;99.90;;;;;;4986038;28;20027;-79
2022/10/05 10:30:33;;;;;;;1999.90;999.90;;;19.70;99.90;;;;;;4987659;28;20027;-77
2022/10/05 10:33:38;;;;;;;1999.90;999.90;;;19.60;99.90;;;;;;4992505;28;20066;-74
2022/10/05 10:36:10;;;;;;;1999.90;999.90;;;19.40;99.90;;;;;;4988807;28;20410;-79
2022/10/05 10:38:57;;;;;;;1999.90;999.90;;;19.40;99.90;;;;;;4994317;28;20041;-80
2022/10/05 10:41:49;;;;;;;1999.90;999.90;;;19.40;99.90;;;;;;4991783;28;20084;-73
2022/10/05 10:44:37;;;;;;;1999.90;999.90;;;19.50;99.90;;;;;;4988969;28;20042;-74
2022/10/05 10:47:33;;;;;;;1999.90;999.90;;;19.50;99.90;;;;;;4989274;28;20112;-74
2022/10/05 10:50:03;;;;;;;1999.90;999.90;;;19.30;99.90;;;;;;4988811;28;20034;-79
2022/10/05 10:53:02;;;;;;;1999.90;999.90;;;19.50;99.90;;;;;;4990788;28;20146;-79
2022/10/05 10:55:52;;;;;;;1999.90;999.90;;;19.40;99.90;;;;;;4987646;28;20453;-79
2022/10/05 10:58:51;;;;;;;1999.90;999.90;;;19.60;99.90;;;;;;4987465;28;20073;-78
2022/10/05 11:01:50;;;;;;;1999.90;999.90;;;19.80;99.90;;;;;;4989566;28;20045;-74
2022/10/05 11:04:28;;;;;;;1999.90;999.90;;;19.70;99.90;;;;;;4993385;28;20046;-79
2022/10/05 11:07:15;;;;;;;1999.90;999.90;;;19.60;99.90;;;;;;4991270;28;20547;-78
2022/10/05 11:09:57;;;;;;;1999.90;999.90;;;19.50;99.90;;;;;;4992948;28;20030;-79
2022/10/05 11:13:00;;;;;;;1999.90;999.90;;;19.30;99.90;;;;;;4990805;28;20030;-79
2022/10/05 11:15:26;;;;;;;1999.90;999.90;;;19.40;99.90;;;;;;4989476;28;20034;-74
2022/10/05 11:17:57;;;;;;;1999.90;999.90;;;19.60;99.90;;;;;;4989910;28;20374;-74
2022/10/05 11:20:37;;;;;;;1999.90;999.90;;;19.40;99.90;;;;;;4990948;28;20022;-78
2022/10/05 11:23:30;;;;;;;1999.90;999.90;;;19.40;99.90;;;;;;4986333;28;20125;-74
2022/10/05 11:26:41;;;;;;;1999.90;999.90;;;19.40;99.90;;;;;;4986647;28;20146;-74
2022/10/05 11:29:44;;;;;;;1999.90;999.90;;;19.50;99.90;;;;;;4993422;28;20046;-74
2022/10/05 11:32:34;;;;;;;1999.90;999.90;;;19.50;99.90;;;;;;4991215;28;20555;-78
2022/10/05 11:35:24;;;;;;;1999.90;999.90;;;19.30;99.90;;;;;;4991973;28;20074;-74
2022/10/05 11:38:08;;;;;;;1999.90;999.90;;;19.50;99.90;;;;;;4991764;28;20458;-74
2022/10/05 11:41:10;;;;;;;1999.90;999.90;;;19.40;99.90;;;;;;4991108;28;20030;-73
2022/10/05 11:44:14;;;;;;;1999.90;999.90;;;19.30;99.90;;;;;;4990088;28;20045;-79
2022/10/05 11:46:58;;;;;;;1999.90;999.90;;;19.40;99.90;;;;;;4991553;28;20038;-79
2022/10/05 11:49:47;;;;;;;1999.90;999.90;;;19.40;99.90;;;;;;4980910;28;20026;-78
2022/10/05 11:52:45;;;;;;;1999.90;999.90;;;19.70;99.90;;;;;;4990692;28;20118;-74
2022/10/05 11:55:34;;;;;;;1999.90;999.90;;;19.80;99.90;;;;;;4990680;28;20019;-79
2022/10/05 11:58:35;;;;;;;1999.90;999.90;;;19.90;99.90;;;;;;4972983;28;20035;-78
2022/10/05 12:01:35;;;;;;;1999.90;999.90;;;20.10;99.90;;;;;;4990567;28;20122;-73
2022/10/05 12:04:40;;;;;;;1999.90;999.90;;;20.00;99.90;;;;;;4991727;28;20046;-74
2022/10/05 12:07:40;;;;;;;1999.90;999.90;;;20.10;99.90;;;;;;4986251;28;20823;-76
2022/10/05 12:10:26;;;;;;;1999.90;999.90;;;20.60;99.90;;;;;;4991561;28;20565;-77
2022/10/05 12:13:07;;;;;;;1999.90;999.90;;;20.60;99.90;;;;;;4991832;28;20030;-75
2022/10/05 12:15:41;;;;;;;1999.90;999.90;;;20.60;99.90;;;;;;4986272;28;20121;-76
2022/10/05 12:18:18;;;;;;;1999.90;999.90;;;20.60;99.90;;;;;;4985174;28;20061;-74
2022/10/05 12:21:05;;;;;;;1999.90;999.90;;;20.60;99.90;;;;;;4990952;28;20494;-74
2022/10/05 12:23:45;;;;;;;1999.90;999.90;;;20.30;99.90;;;;;;4983333;28;20042;-75
2022/10/05 12:26:25;;;;;;;1999.90;999.90;;;20.30;99.90;;;;;;4987699;28;20038;-73
2022/10/05 12:28:57;;;;;;;1999.90;999.90;;;20.50;99.90;;;;;;4990542;28;20034;-76
2022/10/05 12:31:49;;;;;;;1999.90;999.90;;;20.30;99.90;;;;;;4990685;28;20149;-74
2022/10/05 12:34:35;;;;;;;1999.90;999.90;;;20.30;99.90;;;;;;4988538;28;20022;-75
2022/10/05 12:37:29;;;;;;;1999.90;999.90;;;20.30;99.90;;;;;;4989908;28;20241;-76
2022/10/05 12:40:18;;;;;;;1999.90;999.90;;;20.20;99.90;;;;;;4987811;28;20406;-75
2022/10/05 12:42:57;;;;;;;1999.90;999.90;;;20.40;99.90;;;;;;4981112;28;20039;-76
2022/10/05 12:45:35;;;;;;;1999.90;999.90;;;20.50;99.90;;;;;;4983916;28;20458;-76
2022/10/05 12:48:24;;;;;;;1999.90;999.90;;;20.20;99.90;;;;;;4988910;28;20045;-76
2022/10/05 12:51:07;;;;;;;1999.90;999.90;;;20.20;99.90;;;;;;4990735;28;20027;-77
2022/10/05 12:53:39;;;;;;;;;;;20.20;99.90;;;;;;4987390;28;20031;-73
2022/10/05 12:56:08;;;;;;;1999.90;999.90;;;20.40;99.90;;;;;;4991593;28;19936;-74
2022/10/05 12:59:04;;;;;;;1999.90;999.90;;;20.40;99.90;;;;;;4991417;28;20108;-74
2022/10/05 13:01:41;;;;;;;1999.90;999.90;;;20.20;99.90;;;;;;4978505;28;20470;-77
2022/10/05 13:04:48;;;;;;;1999.90;999.90;;;20.70;99.90;;;;;;4991421;28;20440;-77
2022/10/05 13:07:50;;;;;;;1999.90;999.90;;;20.50;99.90;;;;;;4985855;28;20122;-78
2022/10/05 13:10:40;;;;;;;1999.90;999.90;;;20.60;99.90;;;;;;4989447;28;20042;-75
2022/10/05 13:13:35;;;;;;;1999.90;999.90;;;20.70;99.90;;;;;;4990203;28;20402;-77
2022/10/05 13:16:00;;;;;;;1999.90;999.90;;;20.30;99.90;;;;;;4984386;28;20149;-77
2022/10/05 13:18:44;;;;;;;1999.90;999.90;;;20.10;99.90;;;;;;4983541;28;20490;-75
2022/10/05 13:21:18;;;;;;;1999.90;999.90;;;20.20;99.90;;;;;;4987553;28;20026;-75
2022/10/05 13:23:59;;;;;;;1999.90;999.90;;;20.50;99.90;;;;;;4990042;28;20048;-77